Time;durP1;ratioP1;P1;durP2;ratioP2;P2;SDS_P1;SDS_P2;PMS_P1;PMS_P2;Temp;Humidity;BMP_temperature;BMP_pressure;BME280_temperature;BME280_humidity;BME280_pressure;Samples;Min_cycle;Max_cycle;Signal;HPM_P1;HPM_P2
2023/04/19 00:01:52;;;;;;;8.57;6.30;;;;;;;;;;5040947;28;20029;-74
2023/04/19 00:04:37;;;;;;;11.07;7.38;;;;;;;;;;5043892;28;20031;-73
2023/04/19 00:07:22;;;;;;;10.15;6.57;;;;;;;;;;5045481;28;20032;-75
2023/04/19 00:10:08;;;;;;;9.23;6.05;;;;;;;;;;5047592;28;20107;-74
2023/04/19 00:12:53;;;;;;;12.73;7.50;;;;;;;;;;5046334;28;20104;-74
2023/04/19 00:15:39;;;;;;;10.25;6.53;;;;;;;;;;5045270;28;20098;-73
2023/04/19 00:18:24;;;;;;;11.07;6.60;;;;;;;;;;5043386;28;20502;-71
2023/04/19 00:21:10;;;;;;;10.73;6.50;;;;;;;;;;5029485;28;20389;-76
2023/04/19 00:23:55;;;;;;;12.20;7.22;;;;;;;;;;5032556;28;20065;-76
2023/04/19 00:26:40;;;;;;;10.43;6.32;;;;;;;;;;5044161;28;20068;-76
2023/04/19 00:29:26;;;;;;;10.98;7.50;;;;;;;;;;5032939;28;20128;-77
2023/04/19 00:32:11;;;;;;;9.82;6.72;;;;;;;;;;5046658;28;20025;-75
2023/04/19 00:34:56;;;;;;;12.70;7.30;;;;;;;;;;5045971;28;20047;-76
2023/04/19 00:37:41;;;;;;;20.58;7.35;;;;;;;;;;5026175;28;20395;-79
2023/04/19 00:40:27;;;;;;;11.43;7.05;;;;;;;;;;5041998;28;20043;-75
2023/04/19 00:43:16;;;;;;;11.27;7.45;;;;;;;;;;5021010;28;20037;-75
2023/04/19 00:46:01;;;;;;;12.00;7.50;;;;;;;;;;5040402;28;20024;-76
2023/04/19 00:48:47;;;;;;;11.80;7.82;;;;;;;;;;5044504;28;20035;-75
2023/04/19 00:51:33;;;;;;;10.95;7.50;;;;;;;;;;5045417;28;20045;-75
2023/04/19 00:54:18;;;;;;;10.25;6.97;;;;;;;;;;5032299;28;20487;-78
2023/04/19 00:57:04;;;;;;;11.73;7.20;;;;;;;;;;5045335;28;20572;-76
2023/04/19 00:59:50;;;;;;;12.80;7.88;;;;;;;;;;5043014;28;20075;-75
2023/04/19 01:02:35;;;;;;;13.02;8.25;;;;;;;;;;5044943;28;20552;-75
2023/04/19 01:05:20;;;;;;;13.52;7.65;;;;;;;;;;5044309;28;20491;-76
2023/04/19 01:08:07;;;;;;;12.10;8.00;;;;;;;;;;5046898;28;20123;-76
2023/04/19 01:10:52;;;;;;;11.32;7.28;;;;;;;;;;5043783;28;20044;-76
2023/04/19 01:13:37;;;;;;;12.25;7.80;;;;;;;;;;5038831;28;20021;-71
2023/04/19 01:16:25;;;;;;;10.90;7.15;;;;;;;;;;5041087;28;20173;-79
2023/04/19 01:19:11;;;;;;;12.63;8.23;;;;;;;;;;5032632;28;20031;-80
2023/04/19 01:21:57;;;;;;;12.60;7.85;;;;;;;;;;5046734;28;20052;-76
2023/04/19 01:24:42;;;;;;;12.05;6.97;;;;;;;;;;5032659;28;20028;-77
2023/04/19 01:27:27;;;;;;;11.38;7.70;;;;;;;;;;5043217;28;20032;-79
2023/04/19 01:30:12;;;;;;;12.60;8.27;;;;;;;;;;5045578;28;20040;-79
2023/04/19 01:32:58;;;;;;;11.75;7.85;;;;;;;;;;5044063;28;20076;-78
2023/04/19 01:35:43;;;;;;;12.55;8.07;;;;;;;;;;5027342;28;20037;-79
2023/04/19 01:38:28;;;;;;;13.02;7.88;;;;;;;;;;5032133;28;20048;-77
2023/04/19 01:41:14;;;;;;;12.02;8.73;;;;;;;;;;5046058;28;20029;-77
2023/04/19 01:43:59;;;;;;;14.23;9.00;;;;;;;;;;5041299;28;20104;-78
2023/04/19 01:46:45;;;;;;;13.38;8.85;;;;;;;;;;5044848;28;20033;-79
2023/04/19 01:49:30;;;;;;;14.05;8.18;;;;;;;;;;5041650;28;20044;-78
2023/04/19 01:52:15;;;;;;;14.68;9.07;;;;;;;;;;5046196;28;20104;-73
2023/04/19 01:55:00;;;;;;;16.63;10.27;;;;;;;;;;5044854;28;20060;-73
2023/04/19 01:57:46;;;;;;;14.80;9.27;;;;;;;;;;5037617;28;20537;-74
2023/04/19 02:00:31;;;;;;;12.68;8.73;;;;;;;;;;5032719;28;20025;-75
2023/04/19 02:03:16;;;;;;;13.45;9.07;;;;;;;;;;5047162;28;20033;-75
2023/04/19 02:06:01;;;;;;;12.57;8.93;;;;;;;;;;5042338;28;20033;-74
2023/04/19 02:08:46;;;;;;;13.90;9.27;;;;;;;;;;5048422;28;20024;-76
2023/04/19 02:11:32;;;;;;;13.85;9.23;;;;;;;;;;5048708;28;20032;-77
2023/04/19 02:14:17;;;;;;;15.68;9.32;;;;;;;;;;5048783;28;20502;-77
2023/04/19 02:17:02;;;;;;;13.82;8.68;;;;;;;;;;5044378;28;20071;-79
2023/04/19 02:19:47;;;;;;;12.88;8.32;;;;;;;;;;5035414;28;20028;-75
2023/04/19 02:22:33;;;;;;;15.00;8.80;;;;;;;;;;5049298;28;20076;-77
2023/04/19 02:25:18;;;;;;;14.00;8.38;;;;;;;;;;5047734;28;20023;-76
2023/04/19 02:28:03;;;;;;;12.52;8.93;;;;;;;;;;5043623;28;20025;-75
2023/04/19 02:30:48;;;;;;;16.20;9.85;;;;;;;;;;5049608;28;20067;-76
2023/04/19 02:33:34;;;;;;;15.50;8.98;;;;;;;;;;5032015;28;20052;-76
2023/04/19 02:36:19;;;;;;;14.65;9.13;;;;;;;;;;5046082;28;20031;-75
2023/04/19 02:39:05;;;;;;;15.65;9.38;;;;;;;;;;5046064;28;20036;-76
2023/04/19 02:41:51;;;;;;;14.35;9.13;;;;;;;;;;5045539;28;20021;-76
2023/04/19 02:44:36;;;;;;;15.48;8.95;;;;;;;;;;5047860;28;20425;-78
2023/04/19 02:47:21;;;;;;;15.27;9.40;;;;;;;;;;5033513;28;20036;-76
2023/04/19 02:50:06;;;;;;;15.77;9.77;;;;;;;;;;5046204;28;20033;-76
2023/04/19 02:52:52;;;;;;;15.25;9.68;;;;;;;;;;5047795;28;20032;-76
2023/04/19 02:55:37;;;;;;;15.43;10.13;;;;;;;;;;5044556;28;20033;-75
2023/04/19 02:58:22;;;;;;;17.27;10.18;;;;;;;;;;5046254;28;20040;-77
2023/04/19 03:01:08;;;;;;;13.95;9.25;;;;;;;;;;5042831;28;20033;-73
2023/04/19 03:03:53;;;;;;;11.95;8.00;;;;;;;;;;5033371;28;20017;-75
2023/04/19 03:06:38;;;;;;;15.63;9.48;;;;;;;;;;5045368;28;20031;-69
2023/04/19 03:09:24;;;;;;;15.18;10.25;;;;;;;;;;5046886;28;20147;-70
2023/04/19 03:12:09;;;;;;;14.18;9.60;;;;;;;;;;5044345;28;20059;-70
2023/04/19 03:14:54;;;;;;;15.57;9.60;;;;;;;;;;5041717;28;20029;-70
2023/04/19 03:17:39;;;;;;;17.38;10.32;;;;;;;;;;5047939;28;20033;-70
2023/04/19 03:20:25;;;;;;;17.05;10.90;;;;;;;;;;5042376;28;20116;-80
2023/04/19 03:23:10;;;;;;;14.55;9.32;;;;;;;;;;5047902;28;20131;-72
2023/04/19 03:25:56;;;;;;;15.18;9.75;;;;;;;;;;5044315;28;20028;-75
2023/04/19 03:28:41;;;;;;;14.80;9.55;;;;;;;;;;5032249;28;20397;-75
2023/04/19 03:31:26;;;;;;;13.93;9.05;;;;;;;;;;5028082;28;20073;-75
2023/04/19 03:34:11;;;;;;;15.05;9.90;;;;;;;;;;5047702;28;20028;-75
2023/04/19 03:36:57;;;;;;;15.93;9.50;;;;;;;;;;5044509;28;20112;-75
2023/04/19 03:39:42;;;;;;;13.93;9.40;;;;;;;;;;5047021;28;20017;-74
2023/04/19 03:42:27;;;;;;;15.98;10.23;;;;;;;;;;5047544;28;20028;-75
2023/04/19 03:45:12;;;;;;;16.95;11.27;;;;;;;;;;5031168;28;20130;-75
2023/04/19 03:47:58;;;;;;;16.00;9.75;;;;;;;;;;5030438;28;20064;-76
2023/04/19 03:50:43;;;;;;;13.05;8.68;;;;;;;;;;5030934;28;20060;-76
2023/04/19 03:53:28;;;;;;;17.45;10.50;;;;;;;;;;5047721;28;20036;-74
2023/04/19 03:56:13;;;;;;;15.68;10.45;;;;;;;;;;5032208;28;20494;-76
2023/04/19 03:58:59;;;;;;;17.13;10.68;;;;;;;;;;5038936;28;20047;-77
2023/04/19 04:01:44;;;;;;;15.57;10.27;;;;;;;;;;5031529;28;20524;-77
2023/04/19 04:04:30;;;;;;;15.60;10.45;;;;;;;;;;5048325;28;20029;-79
2023/04/19 04:07:15;;;;;;;18.88;10.38;;;;;;;;;;5034639;28;20072;-79
2023/04/19 04:10:00;;;;;;;17.40;11.35;;;;;;;;;;5030749;28;20126;-79
2023/04/19 04:12:45;;;;;;;16.88;10.23;;;;;;;;;;5046894;28;20025;-78
2023/04/19 04:15:31;;;;;;;17.50;10.25;;;;;;;;;;5044304;28;20032;-80
2023/04/19 04:18:16;;;;;;;17.58;10.35;;;;;;;;;;5047033;28;20029;-78
2023/04/19 04:21:01;;;;;;;15.57;9.82;;;;;;;;;;5031025;28;20045;-74
2023/04/19 04:23:48;;;;;;;14.95;9.52;;;;;;;;;;5028579;28;20032;-74
2023/04/19 04:26:34;;;;;;;17.38;10.52;;;;;;;;;;5037168;28;20060;-74
2023/04/19 04:29:19;;;;;;;15.10;10.70;;;;;;;;;;5040655;28;20049;-74
2023/04/19 04:32:09;;;;;;;14.35;10.13;;;;;;;;;;5042246;28;20063;-74
2023/04/19 04:34:54;;;;;;;14.82;10.40;;;;;;;;;;5029799;28;20025;-77
2023/04/19 04:37:39;;;;;;;14.52;10.38;;;;;;;;;;5044089;28;20048;-77
2023/04/19 04:40:24;;;;;;;14.95;9.85;;;;;;;;;;5032538;28;20056;-78
2023/04/19 04:43:10;;;;;;;15.77;9.75;;;;;;;;;;5043763;28;20037;-77
2023/04/19 04:45:56;;;;;;;17.15;10.40;;;;;;;;;;5044232;28;20025;-76
2023/04/19 04:48:41;;;;;;;19.55;10.52;;;;;;;;;;5048373;28;20103;-78
2023/04/19 04:51:27;;;;;;;14.95;9.90;;;;;;;;;;5048148;28;20036;-78
2023/04/19 04:54:13;;;;;;;14.38;10.77;;;;;;;;;;5048865;28;20052;-74
2023/04/19 04:56:58;;;;;;;19.23;10.90;;;;;;;;;;5048114;28;20025;-76
2023/04/19 04:59:45;;;;;;;16.98;11.13;;;;;;;;;;5047599;28;20047;-77
2023/04/19 05:02:30;;;;;;;17.80;10.95;;;;;;;;;;5052185;28;20029;-77
2023/04/19 05:05:15;;;;;;;15.77;10.63;;;;;;;;;;5075038;28;20029;-77
2023/04/19 05:08:00;;;;;;;16.88;11.05;;;;;;;;;;5059328;28;20633;-77
2023/04/19 05:10:46;;;;;;;16.95;10.35;;;;;;;;;;5042798;28;20522;-77
2023/04/19 05:13:31;;;;;;;16.17;11.30;;;;;;;;;;5035094;28;20029;-75
2023/04/19 05:16:16;;;;;;;15.82;11.25;;;;;;;;;;5039024;28;20495;-75
2023/04/19 05:19:01;;;;;;;15.52;10.27;;;;;;;;;;5043633;28;20124;-73
2023/04/19 05:21:47;;;;;;;17.25;10.73;;;;;;;;;;5046095;28;20124;-74
2023/04/19 05:24:32;;;;;;;14.80;10.45;;;;;;;;;;5038045;28;20029;-74
2023/04/19 05:27:17;;;;;;;16.65;10.60;;;;;;;;;;5041560;28;20048;-74
2023/04/19 05:30:03;;;;;;;17.17;10.85;;;;;;;;;;5034483;28;20047;-72
2023/04/19 05:32:49;;;;;;;18.60;11.43;;;;;;;;;;5050176;28;20104;-74
2023/04/19 05:35:34;;;;;;;16.67;11.07;;;;;;;;;;5049727;28;20025;-76
2023/04/19 05:38:19;;;;;;;16.30;10.15;;;;;;;;;;5050470;28;20016;-76
2023/04/19 05:41:05;;;;;;;14.52;10.07;;;;;;;;;;5047861;28;20040;-75
2023/04/19 05:43:50;;;;;;;17.63;10.82;;;;;;;;;;5046645;28;20028;-79
2023/04/19 05:46:35;;;;;;;15.32;10.65;;;;;;;;;;5050132;28;20031;-79
2023/04/19 05:49:20;;;;;;;16.95;11.05;;;;;;;;;;5051671;28;20040;-76
2023/04/19 05:52:06;;;;;;;15.88;10.10;;;;;;;;;;5049917;28;20025;-75
2023/04/19 05:54:51;;;;;;;14.60;10.38;;;;;;;;;;5051816;28;20104;-75
2023/04/19 05:57:36;;;;;;;18.00;11.52;;;;;;;;;;5051736;28;20021;-73
2023/04/19 06:00:21;;;;;;;16.17;11.02;;;;;;;;;;5051254;28;20029;-75
2023/04/19 06:03:07;;;;;;;15.48;9.70;;;;;;;;;;5051596;28;20055;-75
2023/04/19 06:05:52;;;;;;;15.40;9.73;;;;;;;;;;5051783;28;20020;-73
2023/04/19 06:08:37;;;;;;;14.52;10.27;;;;;;;;;;5051716;28;20387;-73
2023/04/19 06:11:22;;;;;;;16.10;10.63;;;;;;;;;;5049777;28;20036;-76
2023/04/19 06:14:08;;;;;;;17.42;10.98;;;;;;;;;;5050168;28;20067;-74
2023/04/19 06:16:54;;;;;;;14.85;10.52;;;;;;;;;;5049103;28;20110;-75
2023/04/19 06:19:40;;;;;;;15.38;9.90;;;;;;;;;;5050623;28;20048;-73
2023/04/19 06:22:25;;;;;;;16.13;10.73;;;;;;;;;;5049301;28;20076;-76
2023/04/19 06:25:10;;;;;;;16.83;11.50;;;;;;;;;;5041551;28;20032;-79
2023/04/19 06:27:56;;;;;;;16.05;10.25;;;;;;;;;;5051371;28;20079;-79
2023/04/19 06:30:41;;;;;;;15.18;9.50;;;;;;;;;;5050693;28;20036;-78
2023/04/19 06:33:26;;;;;;;15.18;9.80;;;;;;;;;;5036945;28;20503;-78
2023/04/19 06:36:11;;;;;;;18.85;12.35;;;;;;;;;;5050735;28;20024;-79
2023/04/19 06:38:57;;;;;;;15.75;10.68;;;;;;;;;;5050937;28;20013;-79
2023/04/19 06:41:42;;;;;;;14.57;9.88;;;;;;;;;;5048959;28;20033;-81
2023/04/19 06:44:27;;;;;;;14.95;9.95;;;;;;;;;;5036575;28;20025;-76
2023/04/19 06:47:12;;;;;;;16.70;10.45;;;;;;;;;;5049227;28;20533;-73
2023/04/19 06:49:58;;;;;;;15.75;9.50;;;;;;;;;;5048428;28;20025;-74
2023/04/19 06:52:43;;;;;;;14.02;9.57;;;;;;;;;;5049128;28;20021;-74
2023/04/19 06:55:28;;;;;;;13.60;9.02;;;;;;;;;;5052051;28;20030;-73
2023/04/19 06:58:14;;;;;;;16.00;10.65;;;;;;;;;;5049192;28;20104;-72
2023/04/19 07:01:00;;;;;;;16.33;10.07;;;;;;;;;;5048824;28;20025;-74
2023/04/19 07:03:45;;;;;;;14.15;9.05;;;;;;;;;;5036487;28;20095;-75
2023/04/19 07:06:30;;;;;;;13.70;9.57;;;;;;;;;;5035393;28;20032;-72
2023/04/19 07:09:16;;;;;;;12.35;8.43;;;;;;;;;;5049144;28;20115;-73
2023/04/19 07:12:01;;;;;;;16.08;9.40;;;;;;;;;;5048132;28;20033;-74
2023/04/19 07:14:46;;;;;;;14.82;8.98;;;;;;;;;;5035394;28;20052;-73
2023/04/19 07:17:33;;;;;;;13.43;9.25;;;;;;;;;;5048532;28;20066;-74
2023/04/19 07:20:20;;;;;;;15.70;9.63;;;;;;;;;;5037036;28;20384;-74
2023/04/19 07:23:05;;;;;;;14.43;10.15;;;;;;;;;;5037244;28;20164;-78
2023/04/19 07:25:50;;;;;;;14.45;10.13;;;;;;;;;;5036462;28;21265;-80
2023/04/19 07:28:38;;;;;;;15.18;9.50;;;;;;;;;;5050049;28;20025;-80
2023/04/19 07:31:24;;;;;;;15.40;10.43;;;;;;;;;;5049402;28;20115;-77
2023/04/19 07:34:09;;;;;;;18.85;9.90;;;;;;;;;;5050053;28;20064;-79
2023/04/19 07:36:55;;;;;;;13.23;8.63;;;;;;;;;;5049762;28;20545;-80
2023/04/19 07:39:40;;;;;;;13.65;9.35;;;;;;;;;;5049947;28;20437;-78
2023/04/19 07:42:25;;;;;;;16.25;10.15;;;;;;;;;;5047936;28;20095;-73
2023/04/19 07:45:10;;;;;;;13.30;8.30;;;;;;;;;;5022949;28;20036;-73
2023/04/19 07:47:56;;;;;;;13.55;9.55;;;;;;;;;;5047583;28;20021;-74
2023/04/19 07:50:41;;;;;;;14.20;9.23;;;;;;;;;;5048453;28;20501;-73
2023/04/19 07:53:26;;;;;;;14.75;10.15;;;;;;;;;;5047732;28;20045;-72
2023/04/19 07:56:11;;;;;;;15.23;8.82;;;;;;;;;;5047928;28;20056;-73
2023/04/19 07:58:57;;;;;;;13.18;8.98;;;;;;;;;;5049679;28;20498;-73
2023/04/19 08:01:42;;;;;;;15.88;10.05;;;;;;;;;;5034290;28;20121;-74
2023/04/19 08:04:27;;;;;;;15.43;10.25;;;;;;;;;;5049489;28;20119;-74
2023/04/19 08:07:12;;;;;;;15.60;9.50;;;;;;;;;;5049157;28;20493;-74
2023/04/19 08:09:58;;;;;;;13.15;8.65;;;;;;;;;;5048948;28;20041;-75
2023/04/19 08:12:43;;;;;;;11.38;7.60;;;;;;;;;;5048616;28;20059;-76
2023/04/19 08:15:28;;;;;;;15.60;8.70;;;;;;;;;;5047670;28;20032;-77
2023/04/19 08:18:13;;;;;;;16.30;8.25;;;;;;;;;;5048668;28;20025;-78
2023/04/19 08:20:59;;;;;;;14.05;7.97;;;;;;;;;;5048495;28;20009;-77
2023/04/19 08:23:44;;;;;;;12.70;7.88;;;;;;;;;;5048233;28;20029;-79
2023/04/19 08:26:29;;;;;;;14.32;8.45;;;;;;;;;;5043260;28;20063;-78
2023/04/19 08:29:15;;;;;;;12.07;7.97;;;;;;;;;;5048803;28;20029;-77
2023/04/19 08:32:00;;;;;;;12.20;7.95;;;;;;;;;;5048298;28;20120;-78
2023/04/19 08:34:46;;;;;;;17.98;7.78;;;;;;;;;;5035141;28;20064;-74
2023/04/19 08:37:31;;;;;;;12.13;7.90;;;;;;;;;;5048093;28;20751;-72
2023/04/19 08:40:16;;;;;;;11.45;7.43;;;;;;;;;;5047627;28;20025;-71
2023/04/19 08:43:05;;;;;;;10.05;6.88;;;;;;;;;;5046425;28;20029;-72
2023/04/19 08:45:51;;;;;;;14.43;7.53;;;;;;;;;;5033985;28;20028;-72
2023/04/19 08:48:36;;;;;;;10.40;6.47;;;;;;;;;;5046580;28;20068;-72
2023/04/19 08:51:22;;;;;;;11.07;7.40;;;;;;;;;;5047142;28;20041;-72
2023/04/19 08:54:08;;;;;;;11.77;6.72;;;;;;;;;;5048225;28;20037;-75
2023/04/19 08:56:53;;;;;;;12.48;6.50;;;;;;;;;;5020787;28;20712;-74
2023/04/19 08:59:38;;;;;;;10.80;6.32;;;;;;;;;;5033772;28;20078;-74
2023/04/19 09:02:24;;;;;;;11.60;6.72;;;;;;;;;;5046168;28;20116;-74
2023/04/19 09:05:09;;;;;;;13.20;7.72;;;;;;;;;;5046526;28;20476;-74
2023/04/19 09:08:14;;;;;;;13.93;7.00;;;;;;;;;;5046618;28;20044;-75
2023/04/19 09:11:00;;;;;;;10.27;6.63;;;;;;;;;;5034070;28;20108;-72
2023/04/19 09:13:45;;;;;;;11.48;7.90;;;;;;;;;;5042404;28;20029;-74
2023/04/19 09:16:31;;;;;;;12.05;6.80;;;;;;;;;;5048358;28;20037;-75
2023/04/19 09:19:16;;;;;;;11.15;6.78;;;;;;;;;;5046441;28;20498;-75
2023/04/19 09:22:11;;;;;;;9.73;6.20;;;;;;;;;;5047882;28;20056;-74
2023/04/19 09:24:57;;;;;;;11.20;6.90;;;;;;;;;;5033147;28;20024;-76
2023/04/19 09:27:43;;;;;;;11.52;6.90;;;;;;;;;;5047590;28;20577;-78
2023/04/19 09:30:28;;;;;;;9.93;6.80;;;;;;;;;;5034372;28;20033;-73
2023/04/19 09:33:29;;;;;;;12.15;7.35;;;;;;;;;;5046947;28;20515;-72
2023/04/19 09:36:31;;;;;;;9.45;6.30;;;;;;;;;;5046773;28;20336;-70
2023/04/19 09:39:32;;;;;;;12.43;6.90;;;;;;;;;;5046811;28;20032;-71
2023/04/19 09:42:18;;;;;;;9.88;6.65;;;;;;;;;;5033047;28;20041;-71
2023/04/19 09:45:04;;;;;;;12.05;7.10;;;;;;;;;;5046264;28;20021;-70
2023/04/19 09:48:03;;;;;;;10.73;7.20;;;;;;;;;;5046411;28;20044;-72
2023/04/19 09:50:55;;;;;;;10.00;6.97;;;;;;;;;;5034049;28;20124;-73
2023/04/19 09:53:41;;;;;;;12.65;8.32;;;;;;;;;;5034403;28;20036;-72
2023/04/19 09:56:27;;;;;;;12.55;8.10;;;;;;;;;;5033211;28;20040;-72
2023/04/19 09:59:12;;;;;;;11.38;7.65;;;;;;;;;;5047933;28;20361;-74
2023/04/19 10:01:58;;;;;;;10.40;7.60;;;;;;;;;;5033871;28;20024;-74
2023/04/19 10:04:44;;;;;;;11.82;7.90;;;;;;;;;;5047184;28;20033;-73
2023/04/19 10:07:29;;;;;;;12.98;7.63;;;;;;;;;;5047918;28;20029;-72
2023/04/19 10:10:18;;;;;;;8.98;6.55;;;;;;;;;;5045807;28;20032;-77
2023/04/19 10:13:05;;;;;;;11.18;7.38;;;;;;;;;;5047008;28;20021;-75
2023/04/19 10:15:51;;;;;;;12.93;6.90;;;;;;;;;;5047857;28;20064;-76
2023/04/19 10:18:36;;;;;;;11.10;7.10;;;;;;;;;;5033177;28;20029;-76
2023/04/19 10:21:22;;;;;;;11.23;6.57;;;;;;;;;;5038821;28;20037;-76
2023/04/19 10:24:08;;;;;;;10.23;7.15;;;;;;;;;;5037538;28;20021;-76
2023/04/19 10:27:13;;;;;;;10.00;7.10;;;;;;;;;;5050954;28;20048;-73
2023/04/19 10:30:03;;;;;;;11.90;7.88;;;;;;;;;;5039832;28;20039;-71
2023/04/19 10:32:55;;;;;;;10.35;6.97;;;;;;;;;;5051051;28;20029;-73
2023/04/19 10:35:43;;;;;;;11.13;7.47;;;;;;;;;;5037533;28;20795;-72
2023/04/19 10:38:47;;;;;;;10.63;7.45;;;;;;;;;;5052404;28;20028;-71
2023/04/19 10:41:52;;;;;;;12.20;7.40;;;;;;;;;;5051400;28;20460;-72
2023/04/19 10:44:37;;;;;;;10.07;6.95;;;;;;;;;;5056771;28;20108;-75
2023/04/19 10:47:41;;;;;;;13.52;8.93;;;;;;;;;;5055153;28;20128;-78
2023/04/19 10:50:26;;;;;;;10.55;6.72;;;;;;;;;;5047593;28;20043;-75
2023/04/19 10:53:30;;;;;;;8.45;6.00;;;;;;;;;;5050619;28;20613;-78
2023/04/19 10:56:42;;;;;;;10.82;6.40;;;;;;;;;;5035074;28;20055;-76
2023/04/19 10:59:31;;;;;;;10.55;6.57;;;;;;;;;;5049454;28;20532;-77
2023/04/19 11:02:31;;;;;;;11.38;6.55;;;;;;;;;;5050193;28;20032;-79
2023/04/19 11:05:16;;;;;;;12.68;7.68;;;;;;;;;;5034538;28;20108;-75
2023/04/19 11:08:03;;;;;;;10.63;6.97;;;;;;;;;;5049626;28;20130;-79
2023/04/19 11:10:48;;;;;;;11.52;7.65;;;;;;;;;;5035809;28;20391;-76
2023/04/19 11:13:35;;;;;;;9.38;6.38;;;;;;;;;;5049215;28;20075;-76
2023/04/19 11:16:20;;;;;;;13.75;7.45;;;;;;;;;;5035437;28;20033;-75
2023/04/19 11:19:06;;;;;;;11.00;7.47;;;;;;;;;;5049046;28;20021;-71
2023/04/19 11:21:51;;;;;;;11.07;7.43;;;;;;;;;;5049657;28;20505;-78
2023/04/19 11:24:36;;;;;;;10.30;7.00;;;;;;;;;;5036463;28;20112;-71
2023/04/19 11:27:21;;;;;;;12.70;7.53;;;;;;;;;;5035364;28;20032;-71
2023/04/19 11:30:07;;;;;;;10.40;7.07;;;;;;;;;;5049724;28;20039;-71
2023/04/19 11:32:53;;;;;;;13.93;7.28;;;;;;;;;;5049295;28;20025;-71
2023/04/19 11:35:40;;;;;;;12.32;7.50;;;;;;;;;;5049458;28;20243;-71
2023/04/19 11:38:28;;;;;;;11.52;7.15;;;;;;;;;;5049877;28;20075;-72
2023/04/19 11:41:14;;;;;;;11.52;7.60;;;;;;;;;;5049179;28;20082;-73
2023/04/19 11:43:59;;;;;;;11.35;6.82;;;;;;;;;;5048096;28;20025;-72
2023/04/19 11:46:58;;;;;;;16.17;7.50;;;;;;;;;;5048595;28;20388;-72
2023/04/19 11:49:43;;;;;;;11.95;7.05;;;;;;;;;;5044581;28;20063;-72
2023/04/19 11:52:28;;;;;;;9.90;6.85;;;;;;;;;;5034310;28;20036;-72
2023/04/19 11:55:17;;;;;;;12.48;7.47;;;;;;;;;;5048144;28;20021;-72
2023/04/19 11:58:05;;;;;;;12.87;8.13;;;;;;;;;;5048065;28;20045;-72
2023/04/19 12:00:50;;;;;;;11.98;8.18;;;;;;;;;;5043672;28;20056;-72
2023/04/19 12:03:46;;;;;;;12.75;8.15;;;;;;;;;;5035234;28;20178;-74
2023/04/19 12:06:31;;;;;;;13.63;8.75;;;;;;;;;;5048904;28;20036;-73
2023/04/19 12:09:19;;;;;;;14.85;8.80;;;;;;;;;;5035487;28;20023;-73
2023/04/19 12:12:05;;;;;;;18.95;9.73;;;;;;;;;;5048101;28;20037;-74
2023/04/19 12:14:51;;;;;;;17.83;10.38;;;;;;;;;;5048605;28;20025;-76
2023/04/19 12:17:54;;;;;;;13.95;9.10;;;;;;;;;;5035055;28;20032;-75
2023/04/19 12:20:49;;;;;;;15.88;10.05;;;;;;;;;;5034616;28;20032;-74
2023/04/19 12:23:35;;;;;;;15.80;9.93;;;;;;;;;;5049290;28;20101;-73
2023/04/19 12:26:20;;;;;;;15.05;10.15;;;;;;;;;;5049130;28;20141;-73
2023/04/19 12:29:05;;;;;;;14.45;10.30;;;;;;;;;;5048658;28;20043;-73
2023/04/19 12:31:50;;;;;;;15.73;10.20;;;;;;;;;;5048969;28;20036;-73
2023/04/19 12:34:36;;;;;;;15.55;10.85;;;;;;;;;;5049009;28;20037;-73
2023/04/19 12:37:21;;;;;;;15.07;9.30;;;;;;;;;;5034731;28;20033;-72
2023/04/19 12:40:06;;;;;;;17.10;10.48;;;;;;;;;;5037008;28;20021;-73
2023/04/19 12:42:52;;;;;;;16.23;10.52;;;;;;;;;;5047783;28;20032;-73
2023/04/19 12:45:37;;;;;;;15.43;9.70;;;;;;;;;;5047996;28;20032;-73
2023/04/19 12:48:23;;;;;;;16.58;11.63;;;;;;;;;;5034535;28;20548;-75
2023/04/19 12:51:08;;;;;;;17.48;11.13;;;;;;;;;;5042612;28;20036;-73
2023/04/19 12:53:53;;;;;;;16.95;12.50;;;;;;;;;;5048696;28;20033;-72
2023/04/19 12:56:38;;;;;;;18.48;12.40;;;;;;;;;;5046189;28;20422;-72
2023/04/19 12:59:24;;;;;;;18.08;12.45;;;;;;;;;;5041532;28;20035;-72
2023/04/19 13:02:09;;;;;;;17.25;12.48;;;;;;;;;;5048722;28;20033;-72
2023/04/19 13:04:54;;;;;;;21.85;11.82;;;;;;;;;;5048389;28;20079;-71
2023/04/19 13:07:39;;;;;;;15.88;10.93;;;;;;;;;;5047342;28;20029;-71
2023/04/19 13:10:25;;;;;;;17.15;11.75;;;;;;;;;;5047898;28;20372;-70
2023/04/19 13:13:10;;;;;;;17.27;11.23;;;;;;;;;;5048346;28;20078;-72
2023/04/19 13:15:55;;;;;;;19.42;12.07;;;;;;;;;;5047277;28;20087;-72
2023/04/19 13:18:40;;;;;;;20.10;12.00;;;;;;;;;;5034182;28;20681;-72
2023/04/19 13:21:26;;;;;;;17.13;12.05;;;;;;;;;;5047224;28;20148;-73
2023/04/19 13:24:11;;;;;;;16.88;12.02;;;;;;;;;;5047518;28;20029;-72
2023/04/19 13:26:57;;;;;;;14.25;9.88;;;;;;;;;;5048360;28;20078;-73
2023/04/19 13:29:42;;;;;;;15.88;10.45;;;;;;;;;;5047124;28;20029;-71
2023/04/19 13:32:27;;;;;;;15.52;10.02;;;;;;;;;;5048213;28;20094;-71
2023/04/19 13:35:13;;;;;;;14.68;9.90;;;;;;;;;;5034714;28;20384;-70
2023/04/19 13:37:58;;;;;;;15.77;11.20;;;;;;;;;;5033812;28;20112;-70
2023/04/19 13:40:43;;;;;;;15.43;9.05;;;;;;;;;;5047673;28;20570;-72
2023/04/19 13:43:29;;;;;;;15.70;9.50;;;;;;;;;;5048295;28;20072;-70
2023/04/19 13:46:14;;;;;;;13.80;8.68;;;;;;;;;;5046996;28;20463;-72
2023/04/19 13:48:59;;;;;;;16.00;8.95;;;;;;;;;;5048211;28;20033;-71
2023/04/19 13:51:45;;;;;;;16.30;9.35;;;;;;;;;;5086678;23;20056;-71
2023/04/19 13:54:30;;;;;;;16.17;10.15;;;;;;;;;;5069057;28;20021;-69
2023/04/19 13:57:15;;;;;;;12.23;8.13;;;;;;;;;;5052496;28;20016;-70
2023/04/19 14:00:00;;;;;;;14.10;9.57;;;;;;;;;;5069435;28;20029;-71
2023/04/19 14:02:46;;;;;;;13.52;9.15;;;;;;;;;;5071404;28;20055;-72
2023/04/19 14:05:31;;;;;;;11.90;7.97;;;;;;;;;;5071334;28;20024;-69
2023/04/19 14:08:16;;;;;;;13.90;8.45;;;;;;;;;;5055523;28;20043;-71
2023/04/19 14:11:02;;;;;;;12.85;8.15;;;;;;;;;;5057828;28;20124;-72
2023/04/19 14:13:51;;;;;;;14.00;8.57;;;;;;;;;;5071113;28;20271;-71
2023/04/19 14:16:36;;;;;;;12.98;7.75;;;;;;;;;;5070772;28;20028;-71
2023/04/19 14:19:21;;;;;;;13.27;7.65;;;;;;;;;;5057285;28;20021;-70
2023/04/19 14:22:06;;;;;;;14.43;8.23;;;;;;;;;;5069753;28;20028;-69
2023/04/19 14:24:52;;;;;;;15.18;8.68;;;;;;;;;;5059575;28;20024;-70
2023/04/19 14:27:37;;;;;;;12.50;8.63;;;;;;;;;;5058566;28;20400;-82
2023/04/19 14:30:24;;;;;;;12.23;8.00;;;;;;;;;;5070696;28;20590;-84
2023/04/19 14:33:10;;;;;;;15.02;8.80;;;;;;;;;;5067221;28;20455;-80
2023/04/19 14:35:55;;;;;;;13.55;8.15;;;;;;;;;;5074699;28;20020;-81
2023/04/19 14:38:40;;;;;;;11.10;7.15;;;;;;;;;;5060749;28;20464;-81
2023/04/19 14:41:25;;;;;;;13.05;8.48;;;;;;;;;;5058721;28;20050;-71
2023/04/19 14:44:10;;;;;;;11.23;7.03;;;;;;;;;;5070169;28;20020;-71
2023/04/19 14:46:56;;;;;;;12.10;7.40;;;;;;;;;;5069459;28;20028;-70
2023/04/19 14:49:41;;;;;;;11.93;7.20;;;;;;;;;;5063329;28;20020;-69
2023/04/19 14:52:26;;;;;;;11.73;7.85;;;;;;;;;;5069248;28;20035;-70
2023/04/19 14:55:12;;;;;;;12.70;8.18;;;;;;;;;;5056566;28;20020;-69
2023/04/19 14:57:57;;;;;;;11.15;6.47;;;;;;;;;;5069624;28;20033;-71
2023/04/19 15:00:42;;;;;;;11.88;8.10;;;;;;;;;;5049375;28;20029;-76
2023/04/19 15:03:28;;;;;;;11.85;6.85;;;;;;;;;;5068956;28;20035;-72
2023/04/19 15:06:13;;;;;;;9.43;5.47;;;;;;;;;;5069215;28;20051;-71
2023/04/19 15:08:58;;;;;;;10.50;6.55;;;;;;;;;;5049541;28;20058;-70
2023/04/19 15:11:43;;;;;;;11.45;7.45;;;;;;;;;;5062913;28;20032;-70
2023/04/19 15:14:29;;;;;;;11.90;7.25;;;;;;;;;;5070368;28;20021;-70
2023/04/19 15:17:15;;;;;;;12.30;7.30;;;;;;;;;;5069235;28;20085;-70
2023/04/19 15:20:00;;;;;;;11.40;6.28;;;;;;;;;;5070098;28;20028;-71
2023/04/19 15:22:46;;;;;;;11.93;6.63;;;;;;;;;;5068947;28;20021;-77
2023/04/19 15:25:31;;;;;;;14.52;6.15;;;;;;;;;;5070428;28;20038;-75
2023/04/19 15:28:16;;;;;;;10.02;6.85;;;;;;;;;;5069282;28;20023;-75
2023/04/19 15:31:03;;;;;;;10.55;6.30;;;;;;;;;;5069918;28;20020;-75
2023/04/19 15:33:48;;;;;;;13.15;7.75;;;;;;;;;;5062563;28;20030;-75
2023/04/19 15:36:33;;;;;;;12.40;6.57;;;;;;;;;;5055090;28;20090;-74
2023/04/19 15:39:18;;;;;;;10.10;6.43;;;;;;;;;;5067059;28;20046;-72
2023/04/19 15:42:04;;;;;;;13.63;7.68;;;;;;;;;;5052615;23;20140;-72
2023/04/19 15:44:49;;;;;;;10.57;7.22;;;;;;;;;;5048549;28;20032;-72
2023/04/19 15:47:34;;;;;;;12.23;7.85;;;;;;;;;;5049168;28;20467;-71
2023/04/19 15:50:20;;;;;;;11.30;6.57;;;;;;;;;;5047745;28;20029;-71
2023/04/19 15:53:05;;;;;;;10.45;7.35;;;;;;;;;;5047603;28;20028;-68
2023/04/19 15:55:51;;;;;;;11.27;6.43;;;;;;;;;;5049391;28;20029;-74
2023/04/19 15:58:36;;;;;;;10.85;6.90;;;;;;;;;;5048934;28;20124;-70
2023/04/19 16:01:22;;;;;;;10.20;6.32;;;;;;;;;;5049153;28;20722;-70
2023/04/19 16:04:07;;;;;;;11.27;7.05;;;;;;;;;;5039209;28;20499;-70
2023/04/19 16:06:52;;;;;;;9.82;6.57;;;;;;;;;;5048410;28;20029;-70
2023/04/19 16:09:37;;;;;;;10.80;7.10;;;;;;;;;;5025627;28;20035;-70
2023/04/19 16:12:24;;;;;;;10.25;6.68;;;;;;;;;;5046801;28;20116;-71
2023/04/19 16:15:09;;;;;;;13.63;7.60;;;;;;;;;;5049376;28;20043;-70
2023/04/19 16:17:54;;;;;;;12.10;7.97;;;;;;;;;;5028195;28;20436;-79